createdAt,value
2023-03-07T00:00:15.522Z,5.80
2023-03-07T00:02:42.163Z,5.90
2023-03-07T00:05:09.124Z,5.90
2023-03-07T00:07:36.780Z,5.90
2023-03-07T00:10:03.666Z,5.80
2023-03-07T00:12:30.250Z,5.90
2023-03-07T00:14:56.876Z,5.80
2023-03-07T00:17:23.489Z,5.80
2023-03-07T00:19:50.128Z,5.90
2023-03-07T00:22:16.822Z,5.80
2023-03-07T00:24:43.460Z,5.80
2023-03-07T00:27:10.311Z,5.80
2023-03-07T00:29:36.950Z,5.80
2023-03-07T00:32:03.685Z,5.80
2023-03-07T00:34:30.368Z,5.80
2023-03-07T00:36:56.963Z,5.80
2023-03-07T00:39:23.664Z,5.70
2023-03-07T00:41:50.283Z,5.80
2023-03-07T00:44:16.866Z,5.80
2023-03-07T00:46:43.483Z,5.80
2023-03-07T00:49:10.112Z,5.80
2023-03-07T00:51:36.765Z,5.80
2023-03-07T00:54:03.715Z,5.80
2023-03-07T00:56:30.363Z,5.80
2023-03-07T00:58:56.992Z,5.80
2023-03-07T01:01:25.125Z,5.80
2023-03-07T01:03:56.033Z,5.80
2023-03-07T01:06:26.148Z,5.80
2023-03-07T01:08:53.469Z,5.70
2023-03-07T01:11:20.121Z,5.70
2023-03-07T01:13:46.878Z,5.70
2023-03-07T01:16:25.135Z,5.70
2023-03-07T01:18:54.186Z,5.70
2023-03-07T01:21:23.819Z,5.70
2023-03-07T01:23:51.080Z,5.70
2023-03-07T01:26:20.667Z,5.70
2023-03-07T01:28:47.790Z,5.70
2023-03-07T01:31:14.482Z,5.70
2023-03-07T01:33:41.797Z,5.70
2023-03-07T01:36:22.508Z,5.70
2023-03-07T01:38:49.766Z,5.70
2023-03-07T01:41:17.009Z,5.60
2023-03-07T01:43:43.845Z,5.60
2023-03-07T01:46:39.816Z,5.60
2023-03-07T01:49:11.821Z,5.60
2023-03-07T01:51:41.634Z,5.50
2023-03-07T01:54:10.813Z,5.50
2023-03-07T01:56:39.190Z,5.50
2023-03-07T01:59:06.827Z,5.50
2023-03-07T02:01:34.041Z,5.50
2023-03-07T02:04:17.713Z,5.40
2023-03-07T02:06:44.392Z,5.40
2023-03-07T02:09:16.959Z,5.30
2023-03-07T02:11:44.975Z,5.30
2023-03-07T02:14:11.949Z,5.30
2023-03-07T02:16:39.634Z,5.30
2023-03-07T02:19:27.765Z,5.30
2023-03-07T02:22:04.269Z,5.30
2023-03-07T02:24:51.307Z,5.30
2023-03-07T02:27:18.019Z,5.30
2023-03-07T02:29:44.665Z,5.30
2023-03-07T02:32:11.398Z,5.30
2023-03-07T02:34:38.091Z,5.30
2023-03-07T02:37:13.285Z,5.30
2023-03-07T02:39:43.158Z,5.30
2023-03-07T02:42:18.547Z,5.30
2023-03-07T02:44:46.639Z,5.30
2023-03-07T02:47:13.544Z,5.30
2023-03-07T02:49:40.154Z,5.30
2023-03-07T02:52:06.950Z,5.30
2023-03-07T02:54:33.613Z,5.30
2023-03-07T02:57:00.194Z,5.30
2023-03-07T02:59:26.857Z,5.20
2023-03-07T03:01:53.542Z,5.20
2023-03-07T03:04:20.158Z,5.20
2023-03-07T03:06:46.844Z,5.30
2023-03-07T03:09:13.436Z,5.30
2023-03-07T03:11:40.070Z,5.30
2023-03-07T03:14:06.707Z,5.20
2023-03-07T03:16:33.372Z,5.20
2023-03-07T03:19:00.259Z,5.20
2023-03-07T03:21:27.075Z,5.20
2023-03-07T03:23:53.666Z,5.20
2023-03-07T03:26:20.436Z,5.20
2023-03-07T03:28:47.041Z,5.20
2023-03-07T03:31:15.213Z,5.20
2023-03-07T03:33:44.080Z,5.20
2023-03-07T03:36:15.039Z,5.20
2023-03-07T03:38:42.429Z,5.20
2023-03-07T03:41:12.927Z,5.20
2023-03-07T03:43:39.564Z,5.20
2023-03-07T03:46:06.773Z,5.20
2023-03-07T03:48:33.681Z,5.20
2023-03-07T03:51:05.333Z,5.20
2023-03-07T03:53:33.280Z,5.20
2023-03-07T03:56:09.398Z,5.10
2023-03-07T03:58:36.145Z,5.10
2023-03-07T04:01:05.839Z,5.10
2023-03-07T04:03:33.787Z,5.00
2023-03-07T04:06:05.808Z,5.10
2023-03-07T04:08:33.563Z,5.00
2023-03-07T04:11:00.285Z,5.00
2023-03-07T04:13:27.553Z,5.00
2023-03-07T04:15:56.919Z,5.00
2023-03-07T04:18:24.573Z,5.00
2023-03-07T04:20:52.246Z,5.00
2023-03-07T04:23:20.566Z,5.00
2023-03-07T04:25:51.887Z,5.00
2023-03-07T04:28:19.400Z,5.00
2023-03-07T04:30:47.056Z,5.00
2023-03-07T04:33:13.701Z,5.00
2023-03-07T04:35:40.388Z,5.00
2023-03-07T04:38:07.134Z,5.00
2023-03-07T04:40:34.819Z,5.00
2023-03-07T04:43:01.512Z,5.00
2023-03-07T04:45:28.119Z,5.00
2023-03-07T04:47:54.730Z,5.00
2023-03-07T04:50:22.085Z,5.00
2023-03-07T04:52:50.422Z,5.00
2023-03-07T04:55:17.147Z,5.00
2023-03-07T04:57:43.766Z,5.10
2023-03-07T05:00:11.160Z,5.10
2023-03-07T05:02:38.147Z,5.10
2023-03-07T05:05:05.704Z,5.10
2023-03-07T05:07:33.248Z,5.10
2023-03-07T05:09:59.885Z,5.10
2023-03-07T05:12:26.525Z,5.10
2023-03-07T05:14:53.167Z,5.20
2023-03-07T05:17:20.318Z,5.20
2023-03-07T05:19:46.954Z,5.20
2023-03-07T05:22:13.547Z,5.20
2023-03-07T05:24:40.218Z,5.20
2023-03-07T05:27:06.851Z,5.20
2023-03-07T05:29:33.482Z,5.20
2023-03-07T05:32:01.502Z,5.30
2023-03-07T05:34:28.192Z,5.30
2023-03-07T05:36:54.788Z,5.20
2023-03-07T05:39:21.399Z,5.30
2023-03-07T05:41:48.018Z,5.30
2023-03-07T05:44:14.599Z,5.30
2023-03-07T05:46:41.177Z,5.30
2023-03-07T05:49:08.344Z,5.20
2023-03-07T05:51:34.968Z,5.30
2023-03-07T05:54:01.585Z,5.20
2023-03-07T05:56:28.165Z,5.20
2023-03-07T05:58:54.767Z,5.20
2023-03-07T06:01:21.393Z,5.20
2023-03-07T06:03:48.451Z,5.20
2023-03-07T06:06:15.103Z,5.20
2023-03-07T06:08:41.688Z,5.20
2023-03-07T06:11:09.604Z,5.20
2023-03-07T06:13:36.236Z,5.20
2023-03-07T06:16:03.373Z,5.30
2023-03-07T06:18:30.312Z,5.30
2023-03-07T06:21:05.819Z,5.40
2023-03-07T06:23:35.331Z,5.40
2023-03-07T06:26:02.796Z,5.50
2023-03-07T06:28:32.410Z,5.50
2023-03-07T06:30:59.572Z,5.50
2023-03-07T06:33:26.382Z,5.50
2023-03-07T06:35:53.077Z,5.50
2023-03-07T06:38:19.766Z,5.60
2023-03-07T06:40:55.266Z,5.60
2023-03-07T06:43:22.153Z,5.70
2023-03-07T06:45:48.820Z,5.70
2023-03-07T06:48:15.522Z,5.80
2023-03-07T06:50:42.149Z,5.80
2023-03-07T06:53:08.749Z,5.80
2023-03-07T06:55:35.442Z,5.90
2023-03-07T06:58:02.190Z,6.00
2023-03-07T07:00:29.040Z,6.00
2023-03-07T07:02:56.048Z,6.10
2023-03-07T07:05:22.770Z,6.20
2023-03-07T07:07:49.424Z,6.20
2023-03-07T07:10:16.169Z,6.20
2023-03-07T07:12:42.793Z,6.20
2023-03-07T07:15:10.056Z,6.30
2023-03-07T07:17:36.883Z,6.30
2023-03-07T07:20:05.368Z,6.50
2023-03-07T07:22:32.497Z,6.50
2023-03-07T07:24:59.485Z,6.60
2023-03-07T07:27:26.242Z,6.70
2023-03-07T07:29:52.866Z,6.80
2023-03-07T07:32:19.794Z,6.80
2023-03-07T07:34:46.612Z,6.90
2023-03-07T07:37:13.300Z,7.00
2023-03-07T07:39:43.764Z,7.10
2023-03-07T07:42:11.695Z,7.10
2023-03-07T07:44:38.576Z,7.10
2023-03-07T07:47:05.326Z,7.10
2023-03-07T07:49:31.994Z,7.10
2023-03-07T07:51:58.617Z,7.20
2023-03-07T07:54:25.335Z,7.30
2023-03-07T07:56:51.958Z,7.30
2023-03-07T07:59:18.691Z,7.30
2023-03-07T08:01:45.346Z,7.40
2023-03-07T08:04:11.935Z,7.40
2023-03-07T08:06:38.649Z,7.50
2023-03-07T08:09:05.529Z,7.50
2023-03-07T08:11:32.208Z,7.50
2023-03-07T08:13:58.836Z,7.60
2023-03-07T08:16:26.013Z,7.60
2023-03-07T08:18:57.208Z,7.60
2023-03-07T08:21:24.972Z,7.60
2023-03-07T08:23:52.921Z,7.60
2023-03-07T08:26:19.569Z,7.70
2023-03-07T08:28:46.446Z,7.80
2023-03-07T08:31:16.069Z,7.80
2023-03-07T08:33:43.011Z,8.00
2023-03-07T08:36:09.944Z,8.10
2023-03-07T08:38:36.619Z,8.30
2023-03-07T08:41:06.234Z,8.50
2023-03-07T08:43:34.437Z,8.60
2023-03-07T08:46:01.113Z,8.80
2023-03-07T08:48:28.593Z,8.80
2023-03-07T08:50:55.645Z,8.90
2023-03-07T08:53:23.062Z,9.00
2023-03-07T08:55:50.061Z,9.00
2023-03-07T08:58:16.706Z,9.10
2023-03-07T09:00:43.376Z,9.10
2023-03-07T09:03:09.999Z,9.10
2023-03-07T09:05:38.785Z,9.20
2023-03-07T09:08:06.849Z,9.30
2023-03-07T09:10:34.925Z,9.30
2023-03-07T09:13:01.646Z,9.50
2023-03-07T09:15:28.303Z,9.50
2023-03-07T09:17:54.957Z,9.60
2023-03-07T09:20:21.590Z,9.80
2023-03-07T09:22:48.261Z,9.90
2023-03-07T09:25:14.898Z,10.00
2023-03-07T09:27:42.238Z,10.20
2023-03-07T09:30:09.677Z,10.30
2023-03-07T09:32:36.512Z,10.40
2023-03-07T09:35:03.789Z,10.40
2023-03-07T09:37:30.504Z,10.50
2023-03-07T09:39:57.149Z,10.60
2023-03-07T09:42:46.787Z,10.70
2023-03-07T09:45:38.774Z,10.70
2023-03-07T09:48:45.403Z,10.70
2023-03-07T09:51:21.385Z,10.70
2023-03-07T09:53:56.418Z,10.80
2023-03-07T09:56:29.807Z,10.90
2023-03-07T09:59:22.344Z,11.00
2023-03-07T10:01:55.404Z,11.20
2023-03-07T10:04:29.073Z,11.20
2023-03-07T10:06:58.603Z,11.30
2023-03-07T10:09:25.807Z,11.30
2023-03-07T10:12:23.025Z,11.30
2023-03-07T10:15:04.883Z,11.30
2023-03-07T10:18:04.752Z,11.30
2023-03-07T10:20:46.829Z,11.20
2023-03-07T10:23:50.088Z,11.20
2023-03-07T10:26:37.324Z,11.30
2023-03-07T10:29:19.588Z,11.30
2023-03-07T10:31:50.978Z,11.40
2023-03-07T10:34:27.696Z,11.50
2023-03-07T10:37:18.961Z,11.60
2023-03-07T10:39:53.659Z,11.60
2023-03-07T10:42:26.331Z,11.70
2023-03-07T10:44:53.300Z,11.70
2023-03-07T10:47:22.762Z,11.70
2023-03-07T10:49:53.497Z,11.70
2023-03-07T10:52:39.702Z,11.80
2023-03-07T10:55:32.492Z,11.80
2023-03-07T10:58:28.517Z,11.80
2023-03-07T11:01:02.363Z,11.80
2023-03-07T11:03:49.728Z,11.90
2023-03-07T11:06:41.638Z,11.90
2023-03-07T11:09:12.594Z,12.00
2023-03-07T11:11:39.297Z,11.90
2023-03-07T11:14:14.504Z,11.90
2023-03-07T11:16:51.812Z,11.80
2023-03-07T11:19:28.058Z,11.80
2023-03-07T11:21:56.365Z,11.80
2023-03-07T11:24:27.500Z,11.80
2023-03-07T11:26:55.641Z,11.80
2023-03-07T11:29:22.679Z,11.80
2023-03-07T11:32:14.692Z,11.70
2023-03-07T11:34:49.716Z,11.60
2023-03-07T11:37:24.309Z,11.70
2023-03-07T11:40:08.745Z,11.70
2023-03-07T11:42:43.791Z,11.70
2023-03-07T11:45:33.415Z,11.70
2023-03-07T11:48:24.720Z,11.70
2023-03-07T11:50:55.322Z,11.60
2023-03-07T11:53:44.152Z,11.50
2023-03-07T11:56:29.102Z,11.30
2023-03-07T11:59:06.532Z,11.20
2023-03-07T12:01:58.700Z,11.10
2023-03-07T12:04:37.616Z,11.20
2023-03-07T12:07:32.450Z,11.20
2023-03-07T12:10:02.258Z,11.30
2023-03-07T12:12:46.764Z,11.30
2023-03-07T12:15:16.214Z,11.40
2023-03-07T12:18:10.567Z,11.40
2023-03-07T12:20:47.360Z,11.50
2023-03-07T12:23:44.969Z,11.40
2023-03-07T12:26:36.439Z,11.30
2023-03-07T12:29:41.660Z,11.30
2023-03-07T12:32:18.126Z,11.30
2023-03-07T12:34:56.460Z,11.40
2023-03-07T12:37:33.221Z,11.40
2023-03-07T12:40:03.388Z,11.30
2023-03-07T12:42:35.485Z,11.20
2023-03-07T12:45:07.959Z,11.10
2023-03-07T12:47:49.934Z,11.00
2023-03-07T12:50:45.865Z,10.90
2023-03-07T12:53:38.913Z,10.80
2023-03-07T12:56:12.285Z,10.70
2023-03-07T12:58:41.694Z,10.60
2023-03-07T13:01:14.414Z,10.40
2023-03-07T13:03:54.643Z,10.20
2023-03-07T13:06:23.720Z,10.10
2023-03-07T13:08:53.233Z,10.00
2023-03-07T13:11:22.906Z,9.90
2023-03-07T13:13:55.604Z,9.90
2023-03-07T13:16:35.549Z,9.80
2023-03-07T13:19:36.143Z,9.80
2023-03-07T13:22:03.178Z,9.90
2023-03-07T13:24:34.968Z,10.00
2023-03-07T13:27:14.682Z,10.00
2023-03-07T13:30:12.535Z,10.10
2023-03-07T13:32:51.185Z,10.10
2023-03-07T13:35:37.687Z,10.10
2023-03-07T13:38:38.292Z,10.20
2023-03-07T13:41:06.715Z,10.30
2023-03-07T13:43:56.417Z,10.40
2023-03-07T13:46:43.528Z,10.50
2023-03-07T13:49:10.135Z,10.60
2023-03-07T13:51:36.818Z,10.70
2023-03-07T13:54:07.102Z,10.80
2023-03-07T13:56:51.825Z,10.90
2023-03-07T13:59:21.511Z,11.00
2023-03-07T14:02:07.348Z,11.00
2023-03-07T14:04:54.308Z,11.20
2023-03-07T14:07:29.712Z,11.40
2023-03-07T14:09:56.268Z,11.50
2023-03-07T14:12:41.714Z,11.70
2023-03-07T14:15:19.667Z,11.80
2023-03-07T14:18:23.928Z,11.80
2023-03-07T14:21:28.135Z,11.80
2023-03-07T14:24:23.292Z,12.00
2023-03-07T14:26:55.298Z,12.00
2023-03-07T14:29:27.607Z,11.90
2023-03-07T14:31:59.364Z,11.80
2023-03-07T14:34:27.675Z,11.80
2023-03-07T14:37:04.354Z,11.70
2023-03-07T14:39:43.881Z,11.70
2023-03-07T14:42:31.421Z,11.70
2023-03-07T14:45:19.010Z,11.80
2023-03-07T14:47:45.606Z,11.70
2023-03-07T14:50:18.803Z,11.70
2023-03-07T14:52:46.684Z,11.60
2023-03-07T14:55:20.531Z,11.50
2023-03-07T14:57:52.581Z,11.30
2023-03-07T15:00:32.546Z,11.20
2023-03-07T15:03:10.697Z,11.00
2023-03-07T15:05:51.812Z,10.80
2023-03-07T15:08:22.773Z,10.70
2023-03-07T15:10:58.133Z,10.60
2023-03-07T15:13:46.677Z,10.40
2023-03-07T15:16:24.021Z,10.30
2023-03-07T15:18:57.121Z,10.10
2023-03-07T15:21:26.468Z,10.00
2023-03-07T15:23:55.463Z,9.80
2023-03-07T15:26:28.113Z,9.80
2023-03-07T15:29:00.470Z,9.70
2023-03-07T15:31:31.680Z,9.50
2023-03-07T15:34:19.973Z,9.50
2023-03-07T15:36:46.554Z,9.40
2023-03-07T15:39:33.334Z,9.30
2023-03-07T15:42:21.544Z,9.30
2023-03-07T15:45:43.668Z,9.30
2023-03-07T15:48:19.548Z,9.30
2023-03-07T15:50:53.172Z,9.30
2023-03-07T15:53:25.448Z,9.30
2023-03-07T15:56:01.223Z,9.30
2023-03-07T15:58:29.527Z,9.30
2023-03-07T16:01:15.851Z,9.20
2023-03-07T16:03:56.938Z,9.30
2023-03-07T16:06:43.829Z,9.30
2023-03-07T16:09:13.634Z,9.20
2023-03-07T16:11:41.374Z,9.20
2023-03-07T16:14:27.324Z,9.20
2023-03-07T16:16:59.410Z,9.30
2023-03-07T16:19:26.408Z,9.20
2023-03-07T16:21:53.225Z,9.20
2023-03-07T16:24:19.866Z,9.20
2023-03-07T16:26:47.043Z,9.20
2023-03-07T16:29:22.122Z,9.10
2023-03-07T16:31:48.937Z,9.10
2023-03-07T16:34:18.170Z,9.10
2023-03-07T16:36:44.878Z,9.10
2023-03-07T16:39:12.659Z,9.00
2023-03-07T16:41:45.633Z,9.00
2023-03-07T16:44:22.202Z,8.90
2023-03-07T16:46:56.235Z,8.80
2023-03-07T16:49:23.231Z,8.80
2023-03-07T16:52:04.464Z,8.80
2023-03-07T16:54:31.637Z,8.70
2023-03-07T16:56:58.361Z,8.70
2023-03-07T16:59:34.461Z,8.70
2023-03-07T17:02:01.568Z,8.60
2023-03-07T17:04:28.149Z,8.50
2023-03-07T17:07:04.361Z,8.50
2023-03-07T17:09:31.360Z,8.50
2023-03-07T17:11:58.283Z,8.50
2023-03-07T17:14:25.021Z,8.40
2023-03-07T17:16:51.716Z,8.40
2023-03-07T17:19:30.097Z,8.30
2023-03-07T17:22:00.946Z,8.30
2023-03-07T17:24:29.207Z,8.30
2023-03-07T17:26:58.364Z,8.30
2023-03-07T17:29:39.365Z,8.20
2023-03-07T17:32:06.304Z,8.20
2023-03-07T17:34:35.608Z,8.10
2023-03-07T17:37:02.651Z,8.00
2023-03-07T17:39:30.746Z,8.00
2023-03-07T17:41:58.932Z,7.90
2023-03-07T17:44:25.714Z,7.90
2023-03-07T17:46:53.863Z,7.80
2023-03-07T17:49:21.432Z,7.80
2023-03-07T17:51:52.816Z,7.70
2023-03-07T17:54:20.381Z,7.70
2023-03-07T17:56:47.382Z,7.60
2023-03-07T17:59:13.957Z,7.60
2023-03-07T18:01:40.744Z,7.50
2023-03-07T18:04:07.483Z,7.50
2023-03-07T18:06:34.802Z,7.40
2023-03-07T18:09:02.213Z,7.40
2023-03-07T18:11:29.050Z,7.40
2023-03-07T18:13:55.686Z,7.40
2023-03-07T18:16:22.565Z,7.30
2023-03-07T18:18:58.799Z,7.30
2023-03-07T18:21:26.457Z,7.30
2023-03-07T18:23:53.331Z,7.30
2023-03-07T18:26:21.030Z,7.40
2023-03-07T18:28:49.505Z,7.40
2023-03-07T18:31:28.108Z,7.40
2023-03-07T18:33:55.412Z,7.40
2023-03-07T18:36:25.170Z,7.40
2023-03-07T18:38:52.379Z,7.50
2023-03-07T18:41:21.723Z,7.50
2023-03-07T18:43:48.380Z,7.50
2023-03-07T18:46:17.290Z,7.50
2023-03-07T18:48:44.178Z,7.50
2023-03-07T18:51:14.598Z,7.60
2023-03-07T18:53:42.113Z,7.60
2023-03-07T18:56:14.600Z,7.60
2023-03-07T18:58:42.614Z,7.60
2023-03-07T19:01:20.829Z,7.60
2023-03-07T19:03:49.603Z,7.70
2023-03-07T19:06:18.524Z,7.60
2023-03-07T19:08:45.852Z,7.70
2023-03-07T19:11:14.501Z,7.70
2023-03-07T19:13:42.366Z,7.70
2023-03-07T19:16:15.126Z,7.80
2023-03-07T19:18:43.231Z,7.80
2023-03-07T19:21:15.238Z,7.80
2023-03-07T19:23:42.027Z,7.80
2023-03-07T19:26:12.588Z,7.80
2023-03-07T19:28:40.345Z,7.80
2023-03-07T19:31:09.207Z,7.80
2023-03-07T19:33:36.409Z,7.80
2023-03-07T19:36:05.518Z,7.80
2023-03-07T19:38:32.157Z,7.80
2023-03-07T19:40:59.439Z,7.80
2023-03-07T19:43:27.258Z,7.80
2023-03-07T19:45:55.640Z,7.80
2023-03-07T19:48:23.563Z,7.80
2023-03-07T19:50:51.049Z,7.80
2023-03-07T19:53:17.837Z,7.80
2023-03-07T19:55:44.573Z,7.80
2023-03-07T19:58:11.278Z,7.80
2023-03-07T20:00:39.610Z,7.80
2023-03-07T20:03:06.533Z,7.80
2023-03-07T20:05:33.175Z,7.80
2023-03-07T20:07:59.780Z,7.80
2023-03-07T20:10:26.465Z,7.80
2023-03-07T20:12:54.509Z,7.80
2023-03-07T20:15:21.115Z,7.80
2023-03-07T20:17:47.723Z,7.80
2023-03-07T20:20:14.415Z,7.80
2023-03-07T20:22:42.269Z,7.80
2023-03-07T20:25:09.405Z,7.90
2023-03-07T20:27:36.054Z,7.90
2023-03-07T20:30:03.077Z,7.90
2023-03-07T20:32:30.018Z,7.80
2023-03-07T20:34:59.423Z,7.80
2023-03-07T20:37:26.120Z,7.90
2023-03-07T20:39:52.772Z,7.90
2023-03-07T20:42:19.369Z,7.90
2023-03-07T20:44:46.024Z,7.90
2023-03-07T20:47:12.665Z,7.90
2023-03-07T20:49:39.313Z,7.90
2023-03-07T20:52:05.930Z,7.90
2023-03-07T20:54:32.485Z,7.80
2023-03-07T20:56:59.065Z,7.80
2023-03-07T20:59:26.061Z,7.80
2023-03-07T21:01:52.749Z,7.80
2023-03-07T21:04:20.924Z,7.80
2023-03-07T21:06:48.486Z,7.80
2023-03-07T21:09:17.132Z,7.70
2023-03-07T21:11:46.639Z,7.70
2023-03-07T21:14:14.819Z,7.70
2023-03-07T21:16:42.985Z,7.70
2023-03-07T21:19:11.476Z,7.70
2023-03-07T21:21:39.095Z,7.70
2023-03-07T21:24:06.733Z,7.60
2023-03-07T21:26:36.208Z,7.60
2023-03-07T21:29:03.883Z,7.60
2023-03-07T21:31:35.323Z,7.50
2023-03-07T21:34:07.748Z,7.60
2023-03-07T21:36:34.808Z,7.50
2023-03-07T21:39:04.128Z,7.50
2023-03-07T21:41:30.757Z,7.40
2023-03-07T21:43:58.154Z,7.40
2023-03-07T21:46:25.377Z,7.40
2023-03-07T21:48:52.584Z,7.40
2023-03-07T21:51:19.926Z,7.30
2023-03-07T21:53:46.590Z,7.30
2023-03-07T21:56:17.070Z,7.30
2023-03-07T21:58:47.160Z,7.30
2023-03-07T22:01:19.706Z,7.30
2023-03-07T22:03:47.133Z,7.30
2023-03-07T22:06:15.712Z,7.30
2023-03-07T22:08:42.924Z,7.30
2023-03-07T22:11:11.851Z,7.30
2023-03-07T22:13:40.233Z,7.30
2023-03-07T22:16:20.301Z,7.30
2023-03-07T22:18:52.356Z,7.30
2023-03-07T22:21:21.018Z,7.30
2023-03-07T22:23:47.638Z,7.30
2023-03-07T22:26:14.343Z,7.30
2023-03-07T22:28:41.274Z,7.30
2023-03-07T22:31:10.510Z,7.30
2023-03-07T22:33:37.480Z,7.30
2023-03-07T22:36:06.677Z,7.40
2023-03-07T22:38:33.417Z,7.40
2023-03-07T22:41:11.836Z,7.30
2023-03-07T22:43:38.853Z,7.40
2023-03-07T22:46:06.407Z,7.40
2023-03-07T22:48:33.467Z,7.40
2023-03-07T22:51:00.785Z,7.40
2023-03-07T22:53:32.457Z,7.40
2023-03-07T22:56:00.098Z,7.40
2023-03-07T22:58:28.110Z,7.40
2023-03-07T23:00:54.726Z,7.50
2023-03-07T23:03:21.563Z,7.50
2023-03-07T23:05:48.228Z,7.50
2023-03-07T23:08:14.865Z,7.50
2023-03-07T23:10:41.500Z,7.50
2023-03-07T23:13:08.149Z,7.50
2023-03-07T23:15:34.797Z,7.40
2023-03-07T23:18:01.414Z,7.40
2023-03-07T23:20:30.104Z,7.50
2023-03-07T23:22:56.734Z,7.50
2023-03-07T23:25:23.348Z,7.50
2023-03-07T23:27:49.934Z,7.50
2023-03-07T23:30:17.763Z,7.50
2023-03-07T23:32:44.652Z,7.50
2023-03-07T23:35:11.629Z,7.50
2023-03-07T23:37:38.255Z,7.50
2023-03-07T23:40:05.458Z,7.60
2023-03-07T23:42:32.099Z,7.60
2023-03-07T23:44:58.921Z,7.60
2023-03-07T23:47:25.522Z,7.60
2023-03-07T23:49:52.142Z,7.50
2023-03-07T23:52:18.835Z,7.50
2023-03-07T23:54:45.911Z,7.50
2023-03-07T23:57:12.857Z,7.60
2023-03-07T23:59:39.469Z,7.60
